KOKK/OKK METAR and TAF weather

Enter ICAO airport designator
Station Type Date Time Source
KOKK METAR 2021/05/15 22:56 UTC NOAA

KOKK 152256Z AUTO 27011KT 10SM OVC080 18/06 A3020 RMK AO2 SLP228 T01830061


Station Type Date Time Source
KOKK Decoded METAR 2021/05/15 22:56 UTC NOAA

Kokomo, Kokomo Municipal Airport, IN, United States (KOKK) 40-32N 086-04W
May 15, 2021 - 06:56 PM EDT / 2021.05.15 2256 UTC
Wind: from the W (270 degrees) at 13 MPH (11 KT):0
Visibility: 10 mile(s):0
Sky conditions: overcast
Temperature: 64.9 F (18.3 C)
Dew Point: 43.0 F (6.1 C)
Relative Humidity: 44%
Pressure (altimeter): 30.2 in. Hg (1022 hPa)
ob: KOKK 152256Z AUTO 27011KT 10SM OVC080 18/06 A3020 RMK AO2 SLP228 T01830061
cycle: 23

Station Type Date Time Source
KOKK TAF UTC NOAA

Error!

Example: see airport list